MEECATA LEGY-LEBB

Flight info

Callsign MEECATA
Flight time N/A
Altitude 16000
Route CEGAM
Aircraft PC12/L-SDFGRWY/S

Departure

Time 2026-04-23 21:06
Airport Garray Airfield (LEGY)

Arrival

Time N/A
Airport Bilbao Airport (LEBB)
Time Latitude Longitude Altitude Speed Heading
2026-04-23 21:03 41.82029 -2.47511 3356 ft 9 kts
2026-04-23 21:03 41.82090 -2.47497 3353 ft 3 kts 12°
2026-04-23 21:04 41.82110 -2.47416 3353 ft 18 kts 86°
2026-04-23 21:04 41.82113 -2.47257 3354 ft 3 kts 92°
2026-04-23 21:04 41.82112 -2.47191 3354 ft 4 kts 331°
2026-04-23 21:04 41.82112 -2.47268 3354 ft 17 kts 272°
2026-04-23 21:05 41.82113 -2.47298 3353 ft 0 kts 259°
2026-04-23 21:05 41.82112 -2.47340 3353 ft 20 kts 268°
2026-04-23 21:05 41.82115 -2.47859 3356 ft 89 kts 270°
2026-04-23 21:05 41.82109 -2.48867 3561 ft 116 kts 268°
2026-04-23 21:06 41.82058 -2.50106 3789 ft 153 kts 266°
2026-04-23 21:06 41.82004 -2.51654 4063 ft 177 kts 271°
2026-04-23 21:06 41.82612 -2.53079 4446 ft 192 kts 327°
2026-04-23 21:06 41.83917 -2.53344 4991 ft 197 kts 20°
2026-04-23 21:07 41.85110 -2.52438 5604 ft 199 kts 36°
2026-04-23 21:07 41.86364 -2.51554 6256 ft 208 kts 22°
2026-04-23 21:07 41.87793 -2.51084 6910 ft 213 kts 10°
2026-04-23 21:07 41.89272 -2.50782 7536 ft 215 kts
2026-04-23 21:08 41.90754 -2.50444 8192 ft 216 kts 10°
2026-04-23 21:08 41.92216 -2.50081 8851 ft 214 kts 10°
2026-04-23 21:08 41.93695 -2.49715 9523 ft 218 kts
2026-04-23 21:08 41.95202 -2.49346 10192 ft 221 kts
2026-04-23 21:09 41.96720 -2.48974 10855 ft 222 kts
2026-04-23 21:09 41.98250 -2.48599 11543 ft 223 kts
2026-04-23 21:09 41.99776 -2.48224 12252 ft 222 kts
2026-04-23 21:09 42.01295 -2.47850 12975 ft 221 kts
2026-04-23 21:10 42.02810 -2.47479 13715 ft 220 kts
2026-04-23 21:10 42.04312 -2.47112 14362 ft 218 kts
2026-04-23 21:10 42.05800 -2.46744 14981 ft 217 kts
2026-04-23 21:10 42.07264 -2.46384 15591 ft 218 kts
2026-04-23 21:11 42.08795 -2.46013 15978 ft 230 kts
2026-04-23 21:11 42.10441 -2.45608 16067 ft 251 kts
2026-04-23 21:11 42.12210 -2.45169 16070 ft 265 kts
2026-04-23 21:11 42.14058 -2.44711 16072 ft 273 kts
2026-04-23 21:12 42.15942 -2.44246 16080 ft 277 kts
2026-04-23 21:12 42.17846 -2.43776 16075 ft 278 kts
2026-04-23 21:12 42.19750 -2.43306 16075 ft 278 kts
2026-04-23 21:12 42.21631 -2.42841 16074 ft 278 kts
2026-04-23 21:13 42.23538 -2.42368 16074 ft 278 kts
2026-04-23 21:13 42.25441 -2.41897 16074 ft 278 kts
2026-04-23 21:13 42.27346 -2.41428 16069 ft 278 kts
2026-04-23 21:13 42.29253 -2.40955 16070 ft 279 kts
2026-04-23 21:14 42.31164 -2.40481 16073 ft 279 kts
2026-04-23 21:14 42.33072 -2.40008 16074 ft 279 kts
2026-04-23 21:14 42.34977 -2.39537 16068 ft 279 kts
2026-04-23 21:14 42.36882 -2.39063 16067 ft 278 kts
2026-04-23 21:15 42.37966 -2.38793 16069 ft 278 kts